Time;durP1;ratioP1;P1;durP2;ratioP2;P2;SDS_P1;SDS_P2;PMS_P1;PMS_P2;Temp;Humidity;BMP_temperature;BMP_pressure;BME280_temperature;BME280_humidity;BME280_pressure;Samples;Min_cycle;Max_cycle;Signal;HPM_P1;HPM_P2
2023/05/04 00:00:58;;;;;;;7.63;4.25;;;;;;;6.03;61.18;102013.72;7401377;19;20020;-68
2023/05/04 00:03:27;;;;;;;8.15;4.53;;;;;;;6.00;61.41;102020.59;7399410;19;20424;-68
2023/05/04 00:05:55;;;;;;;8.23;4.38;;;;;;;5.97;61.59;102021.38;7401212;19;20078;-68
2023/05/04 00:08:26;;;;;;;8.90;4.05;;;;;;;5.95;61.78;102017.91;7401053;19;20086;-68
2023/05/04 00:10:55;;;;;;;6.25;4.28;;;;;;;5.92;61.73;102011.75;7401436;19;20094;-68
2023/05/04 00:13:23;;;;;;;10.23;4.68;;;;;;;5.88;61.76;102013.41;7398225;19;20015;-67
2023/05/04 00:15:51;;;;;;;6.15;3.88;;;;;;;5.84;61.95;102011.63;7398118;19;20078;-67
2023/05/04 00:18:20;;;;;;;7.32;4.68;;;;;;;5.78;62.01;102004.56;7400309;19;20021;-67
2023/05/04 00:20:48;;;;;;;6.55;4.32;;;;;;;5.76;62.13;102005.38;7398200;19;20010;-67
2023/05/04 00:23:17;;;;;;;8.68;4.05;;;;;;;5.70;62.33;102000.94;7399322;19;20014;-68
2023/05/04 00:25:48;;;;;;;9.45;4.25;;;;;;;5.64;62.31;101993.88;7397633;19;20017;-67
2023/05/04 00:28:16;;;;;;;8.48;4.45;;;;;;;5.61;62.43;101990.34;7400930;19;20082;-67
2023/05/04 00:30:45;;;;;;;7.68;4.15;;;;;;;5.57;62.69;101984.19;7397384;19;20028;-66
2023/05/04 00:33:20;;;;;;;9.48;4.95;;;;;;;5.53;62.57;101992.81;7398443;19;20018;-67
2023/05/04 00:35:48;;;;;;;9.10;4.72;;;;;;;5.50;62.76;101988.41;7399851;19;20511;-67
2023/05/04 00:38:18;;;;;;;9.65;4.68;;;;;;;5.47;62.77;101984.88;7398089;19;20014;-67
2023/05/04 00:40:49;;;;;;;7.00;4.32;;;;;;;5.45;63.03;101991.78;7399599;19;20501;-67
2023/05/04 00:43:17;;;;;;;8.52;5.00;;;;;;;5.44;62.93;101984.81;7397182;19;20034;-66
2023/05/04 00:45:45;;;;;;;4.97;3.97;;;;;;;5.39;63.31;101975.19;7399872;19;20078;-67
2023/05/04 00:48:14;;;;;;;9.05;4.57;;;;;;;5.36;63.29;101975.13;7399391;19;20485;-67
2023/05/04 00:50:43;;;;;;;10.15;4.93;;;;;;;5.33;63.83;101982.00;7396890;19;20015;-67
2023/05/04 00:53:13;;;;;;;8.57;4.68;;;;;;;5.26;64.07;101987.91;7398007;19;20421;-67
2023/05/04 00:55:41;;;;;;;8.05;4.72;;;;;;;5.18;64.72;101985.16;7397094;19;20010;-68
2023/05/04 00:58:13;;;;;;;7.88;4.80;;;;;;;5.12;64.66;101987.63;7399335;19;20015;-69
2023/05/04 01:00:41;;;;;;;10.32;4.88;;;;;;;5.09;64.86;101990.19;7401625;19;20086;-70
2023/05/04 01:03:11;;;;;;;8.00;4.35;;;;;;;5.08;65.02;101988.41;7395229;19;20096;-69
2023/05/04 01:05:51;;;;;;;6.35;4.28;;;;;;;5.08;65.09;101991.03;7399832;19;20011;-69
2023/05/04 01:08:23;;;;;;;9.25;5.20;;;;;;;5.08;65.14;101986.72;7399262;19;20167;-69
2023/05/04 01:10:58;;;;;;;6.68;4.47;;;;;;;5.06;65.19;101981.47;7398654;19;20587;-69
2023/05/04 01:13:30;;;;;;;7.78;4.53;;;;;;;5.05;65.28;101978.84;7398089;19;20077;-67
2023/05/04 01:15:58;;;;;;;6.03;4.20;;;;;;;5.05;65.36;101976.22;7396436;19;20457;-67
2023/05/04 01:18:27;;;;;;;6.55;4.20;;;;;;;5.04;65.42;101970.16;7396225;19;20011;-67
2023/05/04 01:20:55;;;;;;;8.48;4.30;;;;;;;5.04;65.23;101988.38;7398700;19;20372;-68
2023/05/04 01:23:27;;;;;;;11.25;4.65;;;;;;;5.02;65.51;101989.19;7397484;19;20082;-68
2023/05/04 01:26:02;;;;;;;8.23;4.70;;;;;;;4.99;65.60;101982.19;7398391;19;20440;-67
2023/05/04 01:28:36;;;;;;;8.93;4.60;;;;;;;4.97;65.68;101985.63;7396881;19;20070;-67
2023/05/04 01:31:06;;;;;;;7.95;4.47;;;;;;;4.94;65.79;101986.44;7398789;19;20036;-67
2023/05/04 01:33:35;;;;;;;8.13;4.45;;;;;;;4.92;65.96;101985.50;7396892;19;20028;-67
2023/05/04 01:36:04;;;;;;;9.85;4.78;;;;;;;4.86;66.38;101986.22;7398087;19;20082;-67
2023/05/04 01:38:35;;;;;;;10.20;4.60;;;;;;;4.82;66.46;101987.03;7396183;19;20082;-67
2023/05/04 01:41:04;;;;;;;7.60;4.70;;;;;;;4.79;66.38;101993.88;7398444;19;20029;-68
2023/05/04 01:43:32;;;;;;;6.45;4.32;;;;;;;4.75;66.58;101987.72;7396835;19;20093;-67
2023/05/04 01:46:01;;;;;;;14.55;4.65;;;;;;;4.72;66.79;101996.31;7397467;19;20376;-67
2023/05/04 01:48:29;;;;;;;10.38;5.13;;;;;;;4.69;66.79;101991.06;7397779;19;20025;-68
2023/05/04 01:50:58;;;;;;;8.55;4.88;;;;;;;4.70;66.91;101997.13;7397657;19;20040;-68
2023/05/04 01:53:26;;;;;;;8.05;5.05;;;;;;;4.68;67.11;101993.66;7395513;19;20019;-67
2023/05/04 01:55:57;;;;;;;9.95;4.65;;;;;;;4.67;67.34;101992.75;7397528;19;20029;-67
2023/05/04 01:58:26;;;;;;;16.45;6.63;;;;;;;4.65;67.34;101999.66;7396023;19;20070;-67
2023/05/04 02:00:54;;;;;;;15.30;6.45;;;;;;;4.65;67.26;101996.16;7396971;19;20384;-67
2023/05/04 02:03:23;;;;;;;10.10;5.35;;;;;;;4.62;67.35;102001.31;7395881;19;20018;-67
2023/05/04 02:05:51;;;;;;;7.05;4.40;;;;;;;4.59;67.15;101996.00;7397179;19;20427;-67
2023/05/04 02:08:20;;;;;;;6.55;3.50;;;;;;;4.56;66.95;101999.41;7397174;19;20081;-67
2023/05/04 02:10:49;;;;;;;5.93;4.22;;;;;;;4.52;67.22;101995.00;7395339;19;20018;-68
2023/05/04 02:13:20;;;;;;;7.22;4.45;;;;;;;4.47;67.02;101994.03;7395953;19;20070;-67
2023/05/04 02:15:49;;;;;;;6.18;3.90;;;;;;;4.43;67.13;101992.19;7396454;19;20025;-67
2023/05/04 02:18:17;;;;;;;7.57;3.85;;;;;;;4.38;67.05;101989.47;7396400;19;20520;-67
2023/05/04 02:20:45;;;;;;;5.97;3.60;;;;;;;4.33;67.07;101985.91;7396664;19;20032;-67
2023/05/04 02:23:14;;;;;;;5.32;4.00;;;;;;;4.28;66.93;101995.31;7396433;19;20074;-66
2023/05/04 02:25:43;;;;;;;5.13;3.72;;;;;;;4.22;67.20;101988.22;7397548;19;20082;-67
2023/05/04 02:28:11;;;;;;;7.60;4.57;;;;;;;4.17;67.19;101997.63;7397691;19;20022;-67
2023/05/04 02:30:43;;;;;;;5.75;3.78;;;;;;;4.11;67.02;101994.88;7394768;19;20023;-67
2023/05/04 02:33:11;;;;;;;6.07;3.97;;;;;;;4.02;67.16;101991.22;7394716;19;20022;-67
2023/05/04 02:35:40;;;;;;;10.38;4.80;;;;;;;3.96;67.22;101991.06;7396211;19;20082;-67
2023/05/04 02:38:09;;;;;;;11.25;4.90;;;;;;;3.91;67.10;101990.94;7394585;19;20417;-67
2023/05/04 02:40:37;;;;;;;6.40;4.40;;;;;;;3.87;67.14;101980.44;7395780;19;20011;-67
2023/05/04 02:43:05;;;;;;;8.10;4.13;;;;;;;3.82;67.08;101992.44;7395162;19;20086;-67
2023/05/04 02:45:34;;;;;;;6.68;4.03;;;;;;;3.77;67.11;101991.41;7395546;19;20422;-67
2023/05/04 02:48:05;;;;;;;9.18;4.40;;;;;;;3.72;67.29;101991.31;7394162;19;20044;-67
2023/05/04 02:50:34;;;;;;;6.18;3.85;;;;;;;3.67;67.18;101985.13;7394448;19;20074;-67
2023/05/04 02:53:02;;;;;;;7.90;3.67;;;;;;;3.62;67.24;101979.78;7394491;19;20549;-67
2023/05/04 02:55:30;;;;;;;6.43;4.00;;;;;;;3.57;67.58;101981.38;7395651;19;20019;-67
2023/05/04 02:57:59;;;;;;;6.38;4.03;;;;;;;3.52;67.26;101978.66;7393625;19;20545;-67
2023/05/04 03:00:27;;;;;;;6.60;4.03;;;;;;;3.49;67.59;101978.59;7395538;19;20078;-67
2023/05/04 03:02:56;;;;;;;5.82;3.90;;;;;;;3.45;67.50;101986.22;7394196;19;20100;-67
2023/05/04 03:05:27;;;;;;;7.25;3.47;;;;;;;3.41;67.45;101978.38;7395134;19;20102;-67
2023/05/04 03:07:55;;;;;;;7.82;4.35;;;;;;;3.38;67.53;101978.28;7395778;19;20025;-67
2023/05/04 03:10:24;;;;;;;8.07;4.18;;;;;;;3.36;67.78;101971.28;7394838;19;20488;-67
2023/05/04 03:12:52;;;;;;;10.10;4.57;;;;;;;3.34;67.90;101980.75;7394461;19;20019;-68
2023/05/04 03:15:21;;;;;;;6.00;4.45;;;;;;;3.31;68.05;101972.88;7392656;19;20493;-66
2023/05/04 03:17:49;;;;;;;6.47;4.13;;;;;;;3.31;67.99;101976.38;7395035;19;20086;-67
2023/05/04 03:20:18;;;;;;;9.48;4.07;;;;;;;3.28;68.10;101973.66;7392904;19;20078;-67
2023/05/04 03:22:55;;;;;;;6.93;5.22;;;;;;;3.26;68.34;101975.34;7394367;19;20074;-67
2023/05/04 03:25:23;;;;;;;7.32;4.47;;;;;;;3.24;68.27;101971.84;7394843;19;20021;-67
2023/05/04 03:27:52;;;;;;;7.95;4.25;;;;;;;3.22;68.31;101973.50;7402140;19;20082;-67
2023/05/04 03:30:20;;;;;;;6.63;4.22;;;;;;;3.19;68.49;101974.28;7402301;19;20106;-67
2023/05/04 03:32:50;;;;;;;8.77;4.65;;;;;;;3.16;68.64;101975.91;7401361;19;20084;-67
2023/05/04 03:35:18;;;;;;;7.88;4.85;;;;;;;3.16;68.75;101976.81;7399325;19;20011;-67
2023/05/04 03:37:47;;;;;;;8.63;5.57;;;;;;;3.14;68.93;101970.69;7400790;19;20086;-67
2023/05/04 03:40:21;;;;;;;9.60;6.25;;;;;;;3.12;69.17;101971.47;7399768;19;20102;-68
2023/05/04 03:42:50;;;;;;;7.15;5.65;;;;;;;3.10;69.29;101969.72;7399129;19;20019;-66
2023/05/04 03:45:19;;;;;;;11.07;5.90;;;;;;;3.08;69.46;101975.69;7401391;19;20041;-66
2023/05/04 03:47:47;;;;;;;9.65;5.80;;;;;;;3.05;69.72;101968.72;7401600;19;20519;-67
2023/05/04 03:50:16;;;;;;;9.60;6.20;;;;;;;3.04;69.87;101974.72;7399417;19;20082;-67
2023/05/04 03:52:44;;;;;;;8.98;5.50;;;;;;;3.03;70.04;101966.91;7401035;19;20029;-66
2023/05/04 03:55:13;;;;;;;9.80;5.88;;;;;;;3.01;70.36;101969.47;7399023;19;20078;-66
2023/05/04 03:57:44;;;;;;;9.20;5.75;;;;;;;3.00;70.42;101964.25;7401242;19;20083;-66
2023/05/04 04:00:14;;;;;;;8.20;6.07;;;;;;;2.97;70.36;101967.63;7400975;19;20010;-66
2023/05/04 04:02:42;;;;;;;9.70;6.10;;;;;;;2.95;70.55;101965.81;7398200;19;20045;-66
2023/05/04 04:05:11;;;;;;;6.95;5.35;;;;;;;2.89;70.74;101964.81;7397723;19;20230;-67
2023/05/04 04:07:40;;;;;;;7.30;5.68;;;;;;;2.88;70.68;101972.50;7400164;19;20548;-66
2023/05/04 04:10:10;;;;;;;9.15;5.53;;;;;;;2.87;70.65;101973.34;7400355;19;20037;-67
2023/05/04 04:12:39;;;;;;;9.52;5.85;;;;;;;2.85;70.67;101973.31;7400152;19;20493;-68
2023/05/04 04:15:11;;;;;;;12.70;6.05;;;;;;;2.84;71.08;101981.91;7398725;19;20086;-67
2023/05/04 04:17:39;;;;;;;13.43;6.22;;;;;;;2.83;71.04;101974.09;7401004;19;20048;-68
2023/05/04 04:20:09;;;;;;;6.72;5.18;;;;;;;2.83;71.33;101975.00;7397507;19;20481;-68
2023/05/04 04:22:38;;;;;;;8.00;5.80;;;;;;;2.83;71.25;101977.59;7399975;19;20032;-67
2023/05/04 04:25:07;;;;;;;9.85;6.32;;;;;;;2.85;71.25;101975.91;7400567;19;20030;-67
2023/05/04 04:27:37;;;;;;;12.07;6.22;;;;;;;2.87;71.48;101975.94;7400208;19;20052;-67
2023/05/04 04:30:05;;;;;;;12.73;6.50;;;;;;;2.90;71.44;101981.22;7400258;19;20019;-67
2023/05/04 04:32:36;;;;;;;8.68;5.70;;;;;;;2.91;71.35;101977.81;7399217;19;20488;-67
2023/05/04 04:35:06;;;;;;;11.55;6.47;;;;;;;2.92;71.58;101976.97;7398227;19;20435;-67
2023/05/04 04:37:34;;;;;;;10.05;6.28;;;;;;;2.97;71.62;101980.59;7394498;19;20015;-68
2023/05/04 04:40:03;;;;;;;17.55;6.97;;;;;;;3.01;71.78;101977.25;7399800;19;20506;-67
2023/05/04 04:42:31;;;;;;;11.27;6.07;;;;;;;3.04;71.83;101981.63;7398932;19;20017;-66
2023/05/04 04:45:00;;;;;;;8.27;6.35;;;;;;;3.08;71.93;101976.59;7396678;19;20090;-67
2023/05/04 04:47:28;;;;;;;7.53;6.15;;;;;;;3.12;71.89;101974.94;7396345;19;20033;-67
2023/05/04 04:49:59;;;;;;;12.25;5.95;;;;;;;3.18;72.17;101975.13;7399138;19;20380;-67
2023/05/04 04:52:28;;;;;;;12.35;6.95;;;;;;;3.24;71.96;101974.44;7396577;19;20082;-68
2023/05/04 04:54:56;;;;;;;13.50;7.22;;;;;;;3.29;72.16;101971.97;7398458;19;20035;-68
2023/05/04 04:57:25;;;;;;;11.90;7.60;;;;;;;3.33;72.17;101968.63;7399048;19;20081;-67
2023/05/04 04:59:54;;;;;;;13.50;8.07;;;;;;;3.39;72.25;101968.78;7398966;19;20074;-67
2023/05/04 05:02:22;;;;;;;16.90;11.05;;;;;;;3.47;72.57;101969.00;7395109;19;20011;-67
2023/05/04 05:04:51;;;;;;;15.77;11.15;;;;;;;3.53;72.52;101969.16;7395942;19;20074;-65
2023/05/04 05:07:22;;;;;;;15.77;12.00;;;;;;;3.59;72.52;101972.81;7398058;19;20015;-65
2023/05/04 05:09:51;;;;;;;25.60;14.80;;;;;;;3.67;72.54;101972.13;7399594;19;20074;-68
2023/05/04 05:12:19;;;;;;;19.27;13.20;;;;;;;3.73;72.63;101974.91;7398245;19;20078;-69
2023/05/04 05:14:49;;;;;;;20.05;15.82;;;;;;;3.81;72.66;101980.28;7396734;19;20422;-69
2023/05/04 05:17:17;;;;;;;23.92;18.25;;;;;;;3.86;72.76;101974.34;7397748;19;20015;-69
2023/05/04 05:19:46;;;;;;;26.33;21.33;;;;;;;3.94;73.05;101966.75;7395349;19;20014;-68
2023/05/04 05:22:18;;;;;;;23.83;19.42;;;;;;;4.02;72.92;101967.84;7403062;19;20049;-69
2023/05/04 05:24:49;;;;;;;23.13;19.75;;;;;;;4.12;73.30;101965.47;7401460;19;20015;-68
2023/05/04 05:27:18;;;;;;;22.38;19.58;;;;;;;4.19;73.28;101962.19;7396655;19;20485;-70
2023/05/04 05:29:46;;;;;;;27.10;21.15;;;;;;;4.26;73.36;101958.91;7394803;19;20032;-68
2023/05/04 05:32:15;;;;;;;24.05;20.30;;;;;;;4.36;73.16;101957.38;7395474;19;20085;-68
2023/05/04 05:34:43;;;;;;;24.02;19.00;;;;;;;4.44;73.35;101960.19;7396804;19;20082;-69
2023/05/04 05:37:11;;;;;;;22.38;18.10;;;;;;;4.52;73.35;101956.88;7397615;19;20017;-69
2023/05/04 05:39:40;;;;;;;21.20;17.42;;;;;;;4.61;73.27;101961.41;7395263;19;20085;-69
2023/05/04 05:42:11;;;;;;;19.92;16.33;;;;;;;4.69;73.06;101952.06;7397811;19;20086;-69
2023/05/04 05:44:39;;;;;;;19.95;16.10;;;;;;;4.78;73.22;101956.59;7394526;19;20021;-69
2023/05/04 05:47:08;;;;;;;20.13;14.63;;;;;;;4.86;72.93;101956.75;7395071;19;20043;-69
2023/05/04 05:49:42;;;;;;;16.65;14.00;;;;;;;4.94;72.76;101960.41;7396275;19;20086;-69
2023/05/04 05:52:11;;;;;;;16.83;13.18;;;;;;;5.02;72.47;101947.56;7395181;19;20019;-70
2023/05/04 05:54:40;;;;;;;19.42;13.65;;;;;;;5.10;72.30;101958.13;7394704;19;20082;-69
2023/05/04 05:57:11;;;;;;;18.33;13.88;;;;;;;5.18;72.39;101952.22;7397056;19;20018;-69
2023/05/04 05:59:40;;;;;;;18.55;13.35;;;;;;;5.27;72.08;101953.25;7397437;19;20028;-69
2023/05/04 06:02:10;;;;;;;17.13;13.75;;;;;;;5.36;72.08;101959.50;7395044;19;20015;-69
2023/05/04 06:04:38;;;;;;;15.00;12.52;;;;;;;5.45;71.83;101952.75;7394211;19;20035;-68
2023/05/04 06:07:07;;;;;;;14.00;11.68;;;;;;;5.53;71.59;101952.03;7396866;19;20074;-69
2023/05/04 06:09:35;;;;;;;15.13;10.77;;;;;;;5.63;71.40;101953.06;7396227;19;20082;-68
2023/05/04 06:12:13;;;;;;;12.98;9.80;;;;;;;5.71;71.16;101956.69;7395434;19;20094;-69
2023/05/04 06:14:46;;;;;;;15.73;10.38;;;;;;;5.81;71.15;101952.53;7395845;19;20014;-69
2023/05/04 06:17:16;;;;;;;11.95;8.70;;;;;;;5.93;70.85;101956.19;7396085;19;20014;-69
2023/05/04 06:19:44;;;;;;;12.65;9.73;;;;;;;6.02;70.73;101952.03;7395447;19;20019;-69
2023/05/04 06:22:13;;;;;;;15.10;9.60;;;;;;;6.12;70.52;101953.06;7394184;19;20014;-68
2023/05/04 06:24:41;;;;;;;16.02;10.07;;;;;;;6.24;70.24;101948.91;7396110;19;20377;-68
2023/05/04 06:27:10;;;;;;;11.52;9.05;;;;;;;6.34;69.86;101943.88;7395614;19;20077;-68
2023/05/04 06:29:40;;;;;;;13.88;9.82;;;;;;;6.43;69.48;101945.75;7395855;19;20025;-68
2023/05/04 06:32:32;;;;;;;12.45;8.65;;;;;;;6.55;69.52;101944.16;7394621;19;20033;-68
2023/05/04 06:35:01;;;;;;;10.38;7.95;;;;;;;6.65;69.21;101939.06;7395037;19;20010;-68
2023/05/04 06:37:29;;;;;;;9.05;7.53;;;;;;;6.74;68.61;101943.53;7393850;19;20388;-69
2023/05/04 06:40:11;;;;;;;11.95;8.35;;;;;;;6.84;68.76;101936.72;7393932;19;20359;-68
2023/05/04 06:42:39;;;;;;;9.77;7.82;;;;;;;6.95;68.55;101937.72;7392538;19;20612;-68
2023/05/04 06:45:09;;;;;;;12.18;7.90;;;;;;;7.07;68.18;101936.13;7395166;19;20042;-68
2023/05/04 06:47:40;;;;;;;12.90;8.45;;;;;;;7.18;68.11;101934.53;7395608;19;20035;-68
2023/05/04 06:50:10;;;;;;;12.85;8.65;;;;;;;7.29;67.59;101935.53;7394308;19;20438;-69
2023/05/04 06:52:40;;;;;;;15.50;7.97;;;;;;;7.41;67.47;101932.16;7394335;19;20365;-69
2023/05/04 06:55:10;;;;;;;8.25;7.40;;;;;;;7.55;67.47;101934.91;7394280;19;20015;-68
2023/05/04 06:57:38;;;;;;;9.40;7.38;;;;;;;7.66;67.21;101941.09;7395318;19;20122;-69
2023/05/04 07:00:09;;;;;;;12.45;7.47;;;;;;;7.77;66.55;101936.00;7393214;19;20017;-67
2023/05/04 07:02:40;;;;;;;13.75;7.07;;;;;;;7.90;66.32;101942.19;7394117;19;20018;-69
2023/05/04 07:05:09;;;;;;;9.27;6.93;;;;;;;8.00;65.97;101943.16;7394701;19;20074;-68
2023/05/04 07:07:38;;;;;;;9.68;7.72;;;;;;;8.12;65.65;101948.47;7394724;19;20086;-68
2023/05/04 07:10:08;;;;;;;9.77;7.38;;;;;;;8.26;65.72;101939.84;7394228;19;20077;-68
2023/05/04 07:12:37;;;;;;;10.02;6.97;;;;;;;8.38;65.41;101939.06;7394469;19;20030;-69
2023/05/04 07:15:06;;;;;;;12.43;6.53;;;;;;;8.51;65.49;101945.28;7394664;19;20018;-68
2023/05/04 07:17:34;;;;;;;12.73;7.35;;;;;;;8.64;65.06;101944.47;7394373;19;20094;-68
2023/05/04 07:20:06;;;;;;;9.10;6.00;;;;;;;8.75;64.76;101936.69;7394202;19;20102;-67
2023/05/04 07:22:35;;;;;;;12.52;8.07;;;;;;;8.89;64.34;101932.41;7393815;19;20527;-68
2023/05/04 07:25:04;;;;;;;12.48;7.78;;;;;;;9.02;64.17;101929.84;7394203;19;20523;-67
2023/05/04 07:27:33;;;;;;;9.00;6.45;;;;;;;9.15;63.72;101934.25;7394014;19;20015;-68
2023/05/04 07:30:05;;;;;;;9.27;6.90;;;;;;;9.27;63.41;101933.41;7395142;19;20048;-68
2023/05/04 07:32:33;;;;;;;12.70;7.57;;;;;;;9.42;63.14;101929.94;7393568;19;20372;-69
2023/05/04 07:35:04;;;;;;;10.70;6.95;;;;;;;9.56;62.83;101929.97;7393216;19;20063;-69
2023/05/04 07:37:33;;;;;;;8.85;6.82;;;;;;;9.69;62.47;101933.47;7391494;19;20411;-68
2023/05/04 07:40:17;;;;;;;8.90;5.95;;;;;;;9.84;61.99;101936.09;7390555;19;20074;-68
2023/05/04 07:42:45;;;;;;;7.78;4.85;;;;;;;9.97;61.60;101937.00;7393606;19;20074;-68
2023/05/04 07:45:15;;;;;;;9.38;5.38;;;;;;;10.10;60.91;101937.88;7393764;19;20082;-68
2023/05/04 07:47:43;;;;;;;10.93;5.32;;;;;;;10.24;60.46;101932.59;7393501;19;20039;-68
2023/05/04 07:50:15;;;;;;;11.13;5.18;;;;;;;10.39;60.00;101929.13;7394092;19;20035;-68
2023/05/04 07:52:44;;;;;;;8.98;5.47;;;;;;;10.51;59.35;101926.44;7393743;19;20019;-69
2023/05/04 07:55:12;;;;;;;9.55;4.95;;;;;;;10.65;58.81;101925.56;7391734;19;20018;-68
2023/05/04 07:57:41;;;;;;;6.78;4.07;;;;;;;10.75;58.30;101920.28;7393028;19;20425;-68
2023/05/04 08:00:11;;;;;;;8.60;4.72;;;;;;;10.88;57.59;101915.84;7393923;19;20032;-69
2023/05/04 08:02:39;;;;;;;10.05;4.80;;;;;;;11.02;57.01;101907.91;7392810;19;20073;-70
2023/05/04 08:05:09;;;;;;;13.32;4.50;;;;;;;11.21;56.68;101913.06;7393703;19;20078;-68
2023/05/04 08:07:40;;;;;;;7.13;4.45;;;;;;;11.34;56.02;101911.22;7391377;19;20074;-68
2023/05/04 08:10:10;;;;;;;9.38;4.00;;;;;;;11.49;55.36;101905.88;7392979;19;20481;-68
2023/05/04 08:12:38;;;;;;;7.60;3.95;;;;;;;11.64;54.87;101904.00;7394163;19;20390;-68
2023/05/04 08:15:09;;;;;;;6.35;3.38;;;;;;;11.79;54.30;101901.28;7397684;19;20505;-68
2023/05/04 08:17:38;;;;;;;8.60;4.13;;;;;;;11.95;53.56;101903.75;7400615;19;20481;-68
2023/05/04 08:20:08;;;;;;;6.10;3.67;;;;;;;12.10;53.24;101894.91;7399817;19;20028;-68
2023/05/04 08:22:37;;;;;;;8.93;3.22;;;;;;;12.23;52.74;101883.34;7399315;19;20126;-67
2023/05/04 08:25:10;;;;;;;6.97;3.30;;;;;;;12.37;51.94;101891.09;7399831;19;20015;-68
2023/05/04 08:27:38;;;;;;;8.13;3.05;;;;;;;12.48;51.59;101881.31;7400553;19;20018;-68
2023/05/04 08:30:08;;;;;;;7.97;3.53;;;;;;;12.61;51.19;101883.81;7399924;19;20011;-69
2023/05/04 08:32:37;;;;;;;9.75;3.13;;;;;;;12.71;51.05;101882.81;7399630;19;20014;-68
2023/05/04 08:35:06;;;;;;;7.32;3.95;;;;;;;12.85;50.12;101882.63;7399456;19;20083;-69
2023/05/04 08:37:35;;;;;;;8.00;3.65;;;;;;;12.97;49.97;101882.47;7399853;19;20018;-68
2023/05/04 08:40:04;;;;;;;5.25;3.13;;;;;;;13.09;49.23;101873.53;7398323;19;20059;-68
2023/05/04 08:42:35;;;;;;;7.75;3.78;;;;;;;13.24;48.37;101882.09;7399686;19;20393;-68
2023/05/04 08:45:03;;;;;;;5.63;3.17;;;;;;;13.38;47.97;101874.88;7397899;19;20094;-68
2023/05/04 08:47:32;;;;;;;11.45;3.97;;;;;;;13.52;47.66;101879.94;7399330;19;20070;-68
2023/05/04 08:50:01;;;;;;;7.72;3.15;;;;;;;13.63;47.17;101870.09;7399309;19;20361;-68
2023/05/04 08:52:30;;;;;;;8.73;2.95;;;;;;;13.77;46.70;101866.34;7397381;19;20026;-69
2023/05/04 08:54:59;;;;;;;7.18;3.30;;;;;;;13.90;46.67;101869.66;7398180;19;20078;-68
2023/05/04 08:57:28;;;;;;;6.80;2.78;;;;;;;14.01;46.34;101867.69;7398531;19;20024;-69
2023/05/04 09:00:01;;;;;;;15.55;3.00;;;;;;;14.10;45.88;101861.38;7398380;19;20082;-68
2023/05/04 09:02:31;;;;;;;4.63;2.50;;;;;;;14.20;45.34;101860.28;7398120;19;20422;-69
2023/05/04 09:05:00;;;;;;;5.22;2.60;;;;;;;14.30;44.92;101851.28;7396587;19;20018;-69
2023/05/04 09:07:28;;;;;;;5.85;2.10;;;;;;;14.42;43.88;101859.88;7396224;19;20493;-69
2023/05/04 09:09:57;;;;;;;7.93;2.20;;;;;;;14.51;43.71;101859.72;7396617;19;20035;-68
2023/05/04 09:12:28;;;;;;;5.35;2.40;;;;;;;14.63;41.82;101859.47;7398010;19;20022;-69
2023/05/04 09:14:57;;;;;;;4.00;2.20;;;;;;;14.77;42.80;101853.03;7397287;19;20491;-68
2023/05/04 09:17:28;;;;;;;7.60;2.65;;;;;;;14.92;42.11;101857.13;7395198;19;20035;-69
2023/05/04 09:20:01;;;;;;;3.25;2.20;;;;;;;15.05;41.85;101845.38;7396671;19;20011;-71
2023/05/04 09:22:30;;;;;;;10.35;4.28;;;;;;;15.17;41.65;101853.94;7396061;19;20033;-68
2023/05/04 09:25:08;;;;;;;3.28;2.05;;;;;;;15.27;40.11;101855.44;7394199;19;20074;-68
2023/05/04 09:27:37;;;;;;;2.63;1.73;;;;;;;15.36;40.68;101847.28;7397812;19;20082;-68
2023/05/04 09:30:06;;;;;;;4.35;2.08;;;;;;;15.45;40.47;101847.03;7395959;19;20096;-68
2023/05/04 09:32:47;;;;;;;5.32;2.05;;;;;;;15.53;39.56;101846.00;7396109;19;20082;-67
2023/05/04 09:35:16;;;;;;;4.00;2.30;;;;;;;15.64;40.13;101844.84;7397476;19;20555;-68
2023/05/04 09:37:46;;;;;;;7.15;2.20;;;;;;;15.75;39.61;101843.69;7397333;19;20500;-69
2023/05/04 09:40:16;;;;;;;4.30;2.35;;;;;;;15.83;39.25;101831.13;7395690;19;20368;-68
2023/05/04 09:42:44;;;;;;;6.75;2.22;;;;;;;15.90;39.23;101829.22;7396816;19;20081;-69
2023/05/04 09:45:14;;;;;;;6.40;2.33;;;;;;;15.97;38.82;101828.13;7397161;19;20435;-69
2023/05/04 09:47:46;;;;;;;3.28;2.00;;;;;;;16.03;38.59;101832.41;7397540;19;20019;-69
2023/05/04 09:50:16;;;;;;;7.00;1.80;;;;;;;16.08;38.88;101823.41;7395556;19;20074;-69
2023/05/04 09:52:46;;;;;;;6.97;2.00;;;;;;;16.17;38.80;101816.13;7397144;19;20041;-68
2023/05/04 09:55:17;;;;;;;3.75;1.88;;;;;;;16.26;38.36;101811.47;7396824;19;20509;-68
2023/05/04 09:57:47;;;;;;;4.32;2.42;;;;;;;16.35;38.14;101818.28;7396088;19;20019;-69
2023/05/04 10:00:17;;;;;;;4.45;2.10;;;;;;;16.43;37.99;101815.41;7397832;19;20018;-68
2023/05/04 10:02:49;;;;;;;5.22;2.00;;;;;;;16.50;37.89;101814.28;7396767;19;20035;-68
2023/05/04 10:05:20;;;;;;;4.85;2.17;;;;;;;16.52;37.22;101803.66;7397697;19;20014;-69
2023/05/04 10:07:48;;;;;;;5.35;2.08;;;;;;;16.58;36.74;101809.63;7395672;19;20039;-67
2023/05/04 10:10:17;;;;;;;5.70;2.22;;;;;;;16.61;36.54;101803.38;7396516;19;20351;-69
2023/05/04 10:12:46;;;;;;;4.43;1.92;;;;;;;16.65;36.53;101799.72;7395815;19;20097;-69
2023/05/04 10:15:17;;;;;;;5.18;1.83;;;;;;;16.69;36.54;101800.50;7395520;19;20019;-68
2023/05/04 10:18:00;;;;;;;4.53;2.40;;;;;;;16.71;35.94;101790.72;7394661;19;20022;-68
2023/05/04 10:20:42;;;;;;;4.25;2.20;;;;;;;16.82;35.41;101790.38;7396574;19;20022;-68
2023/05/04 10:23:43;;;;;;;4.70;2.25;;;;;;;16.90;35.67;101788.38;7395728;19;20093;-68
2023/05/04 10:26:39;;;;;;;5.20;2.40;;;;;;;16.97;34.73;101789.06;7396151;19;20421;-68
2023/05/04 10:29:15;;;;;;;4.18;2.10;;;;;;;17.01;33.59;101786.28;7392082;19;20481;-68
2023/05/04 10:31:44;;;;;;;5.40;2.10;;;;;;;17.05;35.10;101782.59;7396015;19;20074;-68
2023/05/04 10:34:26;;;;;;;3.70;2.17;;;;;;;17.08;34.70;101771.88;7394279;19;20496;-68
2023/05/04 10:36:54;;;;;;;4.90;2.42;;;;;;;17.15;34.86;101767.25;7394518;19;20070;-68
2023/05/04 10:39:24;;;;;;;5.07;2.10;;;;;;;17.19;34.54;101763.56;7394884;19;20015;-68
2023/05/04 10:42:00;;;;;;;4.15;2.70;;;;;;;17.25;33.99;101751.91;7395778;19;20373;-68
2023/05/04 10:44:30;;;;;;;5.25;1.85;;;;;;;17.31;34.27;101742.88;7394148;19;20022;-69
2023/05/04 10:47:04;;;;;;;5.18;1.80;;;;;;;17.36;34.44;101743.56;7395478;19;20021;-69
2023/05/04 10:49:36;;;;;;;4.07;1.98;;;;;;;17.42;34.15;101732.75;7396256;19;20024;-69
2023/05/04 10:52:09;;;;;;;5.05;2.10;;;;;;;17.47;34.30;101728.16;7393084;19;20073;-69
2023/05/04 10:54:38;;;;;;;10.77;2.30;;;;;;;17.61;34.00;101732.97;7393237;19;20015;-68
2023/05/04 10:57:07;;;;;;;4.13;2.00;;;;;;;17.67;33.92;101721.28;7393381;19;20513;-69
2023/05/04 10:59:36;;;;;;;5.70;2.10;;;;;;;17.80;34.03;101730.53;7394650;19;20018;-68
2023/05/04 11:02:06;;;;;;;3.78;2.15;;;;;;;17.92;33.74;101731.88;7394245;19;20376;-68
2023/05/04 11:04:37;;;;;;;6.35;2.58;;;;;;;18.04;33.41;101726.13;7394221;19;20018;-69
2023/05/04 11:07:07;;;;;;;7.47;2.55;;;;;;;18.12;32.53;101725.84;7394563;19;20364;-69
2023/05/04 11:09:40;;;;;;;3.88;2.30;;;;;;;18.20;32.59;101718.44;7394326;19;20488;-69
2023/05/04 11:12:11;;;;;;;6.82;2.45;;;;;;;18.30;32.68;101721.63;7392807;19;20074;-67
2023/05/04 11:14:42;;;;;;;4.28;2.35;;;;;;;18.38;32.25;101716.84;7393049;19;20011;-68
2023/05/04 11:17:12;;;;;;;5.60;2.30;;;;;;;18.45;32.35;101714.84;7393306;19;20029;-67
2023/05/04 11:19:53;;;;;;;4.03;2.25;;;;;;;18.46;31.44;101713.03;7390813;19;20012;-69
2023/05/04 11:22:22;;;;;;;3.17;2.50;;;;;;;18.45;31.92;101708.66;7393658;19;20074;-69
2023/05/04 11:24:51;;;;;;;3.97;2.47;;;;;;;18.46;31.75;101697.09;7392135;19;20074;-67
2023/05/04 11:27:23;;;;;;;6.00;2.30;;;;;;;18.53;31.95;101703.91;7392116;19;20019;-69
2023/05/04 11:29:56;;;;;;;3.00;2.15;;;;;;;18.65;31.25;101707.84;7391432;19;20014;-69
2023/05/04 11:32:36;;;;;;;7.65;2.47;;;;;;;18.77;31.52;101698.53;7391476;19;20369;-68
2023/05/04 11:35:10;;;;;;;5.93;2.30;;;;;;;18.94;31.78;101695.19;7392064;19;20007;-68
2023/05/04 11:37:42;;;;;;;4.50;2.13;;;;;;;19.09;30.49;101693.69;7390867;19;20090;-68
2023/05/04 11:40:13;;;;;;;5.32;2.80;;;;;;;19.23;31.16;101696.59;7392374;19;20018;-68